Time;durP1;ratioP1;P1;durP2;ratioP2;P2;SDS_P1;SDS_P2;PMS_P1;PMS_P2;Temp;Humidity;BMP_temperature;BMP_pressure;BME280_temperature;BME280_humidity;BME280_pressure;Samples;Min_cycle;Max_cycle;Signal;HPM_P1;HPM_P2
2021/04/18 00:01:27;;;;;;;9.63;4.43;;;6.80;65.50;;;;;;5093942;28;20024;-36
2021/04/18 00:03:52;;;;;;;5.65;3.33;;;6.80;65.60;;;;;;5094907;28;20490;-36
2021/04/18 00:06:20;;;;;;;10.57;4.25;;;6.90;65.60;;;;;;5094970;28;20462;-35
2021/04/18 00:08:46;;;;;;;8.10;4.70;;;6.80;65.80;;;;;;5094846;28;20464;-35
2021/04/18 00:11:12;;;;;;;8.63;3.80;;;6.80;66.30;;;;;;5094654;28;20483;-36
2021/04/18 00:13:37;;;;;;;10.38;3.53;;;6.80;65.90;;;;;;5094684;28;20028;-35
2021/04/18 00:16:03;;;;;;;12.02;5.03;;;6.90;65.60;;;;;;5094925;28;20020;-36
2021/04/18 00:18:29;;;;;;;9.75;4.78;;;6.80;66.00;;;;;;5093435;28;20047;-36
2021/04/18 00:20:56;;;;;;;11.27;5.13;;;7.00;65.60;;;;;;5094904;28;20066;-35
2021/04/18 00:23:22;;;;;;;9.50;4.75;;;6.80;65.90;;;;;;5094834;28;20024;-36
2021/04/18 00:25:48;;;;;;;11.07;3.97;;;6.80;66.40;;;;;;5093223;28;20036;-37
2021/04/18 00:28:13;;;;;;;6.95;3.85;;;6.80;66.60;;;;;;5094540;28;20078;-36
2021/04/18 00:30:39;;;;;;;11.52;5.15;;;6.70;67.00;;;;;;5094403;28;20032;-36
2021/04/18 00:33:05;;;;;;;8.88;4.07;;;6.40;67.80;;;;;;5093657;28;20035;-35
2021/04/18 00:35:31;;;;;;;11.40;5.07;;;6.20;69.00;;;;;;5094419;28;20024;-36
2021/04/18 00:37:56;;;;;;;8.20;3.90;;;6.10;69.70;;;;;;5094410;28;20020;-36
2021/04/18 00:40:24;;;;;;;7.22;3.80;;;6.00;70.00;;;;;;5093035;28;20016;-36
2021/04/18 00:42:51;;;;;;;9.75;4.18;;;5.90;70.40;;;;;;5094604;28;20380;-36
2021/04/18 00:45:18;;;;;;;7.00;3.92;;;5.90;70.30;;;;;;5092974;28;20024;-36
2021/04/18 00:47:52;;;;;;;9.77;3.80;;;5.80;70.50;;;;;;5093955;28;20044;-37
2021/04/18 00:50:31;;;;;;;11.30;4.40;;;5.80;71.10;;;;;;5094427;28;20085;-37
2021/04/18 00:52:57;;;;;;;6.07;2.95;;;5.70;71.50;;;;;;5092809;28;20484;-37
2021/04/18 00:55:26;;;;;;;8.43;3.92;;;5.70;71.50;;;;;;5094284;28;20024;-37
2021/04/18 00:57:53;;;;;;;8.85;3.80;;;5.80;71.40;;;;;;5094191;28;20016;-37
2021/04/18 01:00:19;;;;;;;7.05;4.20;;;5.70;71.70;;;;;;5093687;28;20024;-36
2021/04/18 01:02:44;;;;;;;11.00;3.83;;;5.70;71.70;;;;;;5093742;28;20025;-36
2021/04/18 01:05:11;;;;;;;9.68;4.20;;;5.70;71.70;;;;;;5092402;28;20052;-37
2021/04/18 01:07:37;;;;;;;11.10;4.43;;;5.70;71.90;;;;;;5093588;28;20055;-39
2021/04/18 01:10:06;;;;;;;8.32;6.15;;;5.60;72.10;;;;;;5093429;28;20031;-36
2021/04/18 01:12:32;;;;;;;9.88;4.30;;;5.50;72.40;;;;;;5093018;28;20031;-36
2021/04/18 01:14:57;;;;;;;10.85;3.20;;;5.30;72.80;;;;;;5093618;28;20402;-37
2021/04/18 01:17:24;;;;;;;11.63;4.13;;;5.30;73.00;;;;;;5093370;28;20046;-37
2021/04/18 01:19:49;;;;;;;8.55;5.05;;;5.30;73.30;;;;;;5093767;28;20108;-37
2021/04/18 01:22:15;;;;;;;9.73;4.60;;;5.30;72.90;;;;;;5093417;28;20060;-36
2021/04/18 01:24:41;;;;;;;10.48;6.90;;;5.20;73.60;;;;;;5093276;28;20050;-37
2021/04/18 01:27:07;;;;;;;11.35;7.07;;;5.30;73.50;;;;;;5093577;28;20024;-37
2021/04/18 01:29:33;;;;;;;17.23;7.47;;;5.20;73.60;;;;;;5093736;28;20065;-37
2021/04/18 01:31:59;;;;;;;15.95;7.43;;;5.10;74.10;;;;;;5091816;28;20119;-37
2021/04/18 01:34:25;;;;;;;14.68;6.40;;;5.00;74.50;;;;;;5093245;28;20028;-37
2021/04/18 01:36:51;;;;;;;13.65;6.15;;;5.20;74.50;;;;;;5094181;28;20028;-37
2021/04/18 01:39:17;;;;;;;11.40;6.13;;;5.10;74.70;;;;;;5091949;28;20027;-37
2021/04/18 01:41:43;;;;;;;11.38;6.85;;;5.00;75.60;;;;;;5093222;28;20418;-37
2021/04/18 01:44:12;;;;;;;11.82;7.55;;;4.80;76.00;;;;;;5093298;28;20035;-36
2021/04/18 01:46:39;;;;;;;15.48;7.63;;;5.00;75.00;;;;;;5093224;28;20031;-36
2021/04/18 01:49:06;;;;;;;12.10;6.63;;;5.10;74.80;;;;;;5093081;28;20046;-36
2021/04/18 01:51:32;;;;;;;17.23;6.70;;;5.30;74.00;;;;;;5093357;28;20105;-36
2021/04/18 01:53:57;;;;;;;12.82;6.05;;;5.50;73.00;;;;;;5093364;28;20095;-36
2021/04/18 01:56:23;;;;;;;19.77;6.78;;;5.40;72.90;;;;;;5093054;28;20178;-36
2021/04/18 01:58:49;;;;;;;12.13;6.85;;;5.40;72.90;;;;;;5092929;28;20047;-36
2021/04/18 02:01:14;;;;;;;10.93;4.95;;;5.30;74.00;;;;;;5092888;28;20031;-36
2021/04/18 02:03:40;;;;;;;10.73;5.82;;;5.30;73.40;;;;;;5093214;28;20070;-36
2021/04/18 02:06:06;;;;;;;11.32;5.00;;;5.50;73.00;;;;;;5093177;28;20020;-36
2021/04/18 02:08:31;;;;;;;9.73;4.90;;;5.50;72.60;;;;;;5093001;28;20468;-36
2021/04/18 02:10:57;;;;;;;13.27;6.10;;;5.60;72.20;;;;;;5092855;28;20084;-36
2021/04/18 02:13:23;;;;;;;10.35;4.75;;;5.50;72.50;;;;;;5091549;28;20020;-36
2021/04/18 02:15:48;;;;;;;12.82;5.35;;;5.70;72.30;;;;;;5093076;28;20032;-36
2021/04/18 02:18:14;;;;;;;13.70;5.57;;;5.70;71.40;;;;;;5092799;28;20078;-36
2021/04/18 02:20:40;;;;;;;9.63;4.85;;;5.80;71.40;;;;;;5092937;28;20047;-36
2021/04/18 02:23:05;;;;;;;8.85;4.10;;;5.80;70.70;;;;;;5093104;28;20081;-36
2021/04/18 02:25:31;;;;;;;13.98;5.35;;;5.70;71.40;;;;;;5095479;28;20057;-36
2021/04/18 02:27:57;;;;;;;9.35;4.25;;;5.80;71.30;;;;;;5096500;28;20114;-36
2021/04/18 02:30:23;;;;;;;13.95;5.43;;;5.80;71.20;;;;;;5096526;28;20030;-36
2021/04/18 02:32:48;;;;;;;9.63;4.00;;;5.60;72.30;;;;;;5096479;28;20028;-36
2021/04/18 02:35:16;;;;;;;9.90;4.40;;;5.60;72.10;;;;;;5078421;28;20031;-37
2021/04/18 02:37:45;;;;;;;9.10;4.97;;;5.50;72.10;;;;;;5095779;28;20017;-37
2021/04/18 02:40:11;;;;;;;11.32;5.25;;;5.60;72.00;;;;;;5096483;28;20036;-38
2021/04/18 02:42:38;;;;;;;12.52;5.93;;;5.40;72.80;;;;;;5096893;28;20048;-38
2021/04/18 02:45:04;;;;;;;9.20;4.28;;;5.40;72.80;;;;;;5096699;28;20099;-36
2021/04/18 02:47:30;;;;;;;11.68;5.00;;;5.40;72.70;;;;;;5096638;28;20051;-38
2021/04/18 02:49:56;;;;;;;10.85;4.85;;;5.40;73.00;;;;;;5096661;28;20028;-36
2021/04/18 02:52:21;;;;;;;11.18;4.55;;;5.50;72.90;;;;;;5096237;28;20064;-36
2021/04/18 02:54:47;;;;;;;15.07;5.00;;;5.50;72.80;;;;;;5096476;28;20134;-36
2021/04/18 02:57:13;;;;;;;12.77;5.03;;;5.50;72.50;;;;;;5096213;28;20028;-36
2021/04/18 02:59:38;;;;;;;8.27;4.63;;;5.50;72.50;;;;;;5096420;28;20079;-36
2021/04/18 03:02:04;;;;;;;8.20;4.22;;;5.60;72.40;;;;;;5096052;28;20024;-37
2021/04/18 03:04:29;;;;;;;12.30;5.10;;;5.50;72.40;;;;;;5096042;28;20024;-35
2021/04/18 03:06:55;;;;;;;8.93;4.63;;;5.60;72.20;;;;;;5096027;28;20031;-36
2021/04/18 03:09:21;;;;;;;8.73;4.78;;;5.60;72.20;;;;;;5095995;28;20023;-36
2021/04/18 03:11:46;;;;;;;9.23;4.53;;;5.70;72.00;;;;;;5096175;28;20024;-36
2021/04/18 03:14:12;;;;;;;12.70;3.90;;;5.70;72.10;;;;;;5096012;28;20093;-36
2021/04/18 03:16:38;;;;;;;14.73;4.82;;;5.50;73.20;;;;;;5095777;28;20476;-36
2021/04/18 03:19:04;;;;;;;15.18;5.75;;;5.40;73.40;;;;;;5096026;28;20023;-36
2021/04/18 03:21:29;;;;;;;10.77;4.28;;;5.40;73.80;;;;;;5095627;28;20074;-36
2021/04/18 03:23:55;;;;;;;10.65;4.97;;;5.50;73.60;;;;;;5094537;28;20418;-36
2021/04/18 03:26:21;;;;;;;10.10;5.63;;;5.40;73.50;;;;;;5095642;28;20063;-36
2021/04/18 03:28:46;;;;;;;10.25;4.68;;;5.50;73.10;;;;;;5096490;28;20375;-42
2021/04/18 03:31:12;;;;;;;8.13;5.03;;;5.80;71.50;;;;;;5095579;28;20074;-36
2021/04/18 03:33:38;;;;;;;11.20;5.22;;;5.60;72.40;;;;;;5095760;28;20036;-36
2021/04/18 03:36:04;;;;;;;9.40;5.50;;;5.30;72.90;;;;;;5094361;28;20020;-36
2021/04/18 03:38:30;;;;;;;7.63;4.75;;;5.40;73.00;;;;;;5095699;28;20099;-36
2021/04/18 03:40:56;;;;;;;12.90;5.45;;;5.60;72.60;;;;;;5095673;28;20150;-36
2021/04/18 03:43:21;;;;;;;9.68;5.57;;;5.50;72.50;;;;;;5095717;28;20456;-37
2021/04/18 03:45:47;;;;;;;7.35;4.30;;;5.70;72.30;;;;;;5095382;28;20028;-37
2021/04/18 03:48:13;;;;;;;18.65;5.25;;;5.70;71.90;;;;;;5095306;28;20128;-36
2021/04/18 03:50:38;;;;;;;12.00;4.32;;;5.70;72.40;;;;;;5095228;28;20476;-36
2021/04/18 03:53:04;;;;;;;13.00;4.63;;;5.90;71.40;;;;;;5095132;28;20484;-36
2021/04/18 03:55:30;;;;;;;14.07;5.30;;;5.80;72.10;;;;;;5093811;28;20028;-37
2021/04/18 03:57:55;;;;;;;11.50;4.80;;;5.70;72.50;;;;;;5095596;28;20052;-36
2021/04/18 04:00:21;;;;;;;9.52;5.13;;;6.00;71.80;;;;;;5095025;28;20062;-36
2021/04/18 04:02:47;;;;;;;8.60;4.65;;;5.70;72.20;;;;;;5095249;28;20047;-36
2021/04/18 04:05:13;;;;;;;8.30;5.00;;;5.80;71.90;;;;;;5095209;28;20063;-36
2021/04/18 04:07:39;;;;;;;10.65;5.28;;;5.80;72.30;;;;;;5095022;28;20059;-36
2021/04/18 04:10:05;;;;;;;10.35;5.05;;;5.80;72.50;;;;;;5094833;28;20376;-36
2021/04/18 04:12:32;;;;;;;8.65;5.68;;;5.80;72.10;;;;;;5093529;28;20073;-36
2021/04/18 04:14:58;;;;;;;11.00;5.25;;;6.10;71.40;;;;;;5094683;28;20032;-36
2021/04/18 04:17:25;;;;;;;10.70;5.22;;;6.10;71.20;;;;;;5094573;28;20020;-36
2021/04/18 04:19:51;;;;;;;12.23;5.75;;;6.10;71.30;;;;;;5094373;28;20024;-36
2021/04/18 04:22:17;;;;;;;17.60;5.70;;;6.20;70.50;;;;;;5094539;28;20035;-36
2021/04/18 04:24:42;;;;;;;12.30;4.38;;;6.10;70.70;;;;;;5094653;28;20023;-36
2021/04/18 04:27:08;;;;;;;9.93;5.45;;;6.10;71.30;;;;;;5094368;28;20035;-36
2021/04/18 04:29:34;;;;;;;10.52;5.22;;;6.30;70.90;;;;;;5094261;28;20383;-37
2021/04/18 04:31:59;;;;;;;16.05;5.88;;;6.30;70.90;;;;;;5094267;28;20329;-36
2021/04/18 04:34:25;;;;;;;7.07;4.78;;;6.30;70.80;;;;;;5093107;28;20034;-36
2021/04/18 04:36:51;;;;;;;12.48;5.72;;;6.10;71.30;;;;;;5094246;28;20020;-36
2021/04/18 04:39:16;;;;;;;11.55;5.50;;;5.90;72.50;;;;;;5094238;28;20062;-36
2021/04/18 04:41:42;;;;;;;13.18;6.68;;;5.80;72.90;;;;;;5092990;28;20027;-36
2021/04/18 04:44:08;;;;;;;7.15;5.72;;;5.80;72.90;;;;;;5093986;28;20028;-36
2021/04/18 04:46:34;;;;;;;10.65;5.90;;;5.90;73.00;;;;;;5094043;28;20031;-36
2021/04/18 04:49:00;;;;;;;9.00;6.28;;;5.80;73.00;;;;;;5091720;28;20044;-36
2021/04/18 04:51:25;;;;;;;12.80;6.00;;;5.80;73.10;;;;;;5093888;28;20031;-36
2021/04/18 04:53:51;;;;;;;13.07;5.35;;;5.70;73.90;;;;;;5094118;28;20095;-36
2021/04/18 04:56:17;;;;;;;13.10;6.63;;;5.70;73.60;;;;;;5093783;28;20016;-36
2021/04/18 04:58:42;;;;;;;11.10;6.07;;;5.50;73.80;;;;;;5092450;28;20032;-36
2021/04/18 05:01:08;;;;;;;12.02;6.03;;;5.50;73.90;;;;;;5092446;28;20028;-36
2021/04/18 05:03:33;;;;;;;11.10;6.07;;;5.60;73.80;;;;;;5093669;28;20105;-36
2021/04/18 05:05:59;;;;;;;18.15;6.82;;;5.70;73.30;;;;;;5093603;28;20123;-37
2021/04/18 05:08:25;;;;;;;13.93;6.70;;;5.70;73.70;;;;;;5093671;28;20027;-36
2021/04/18 05:10:50;;;;;;;12.23;5.65;;;5.80;72.80;;;;;;5093849;28;20032;-36
2021/04/18 05:13:16;;;;;;;10.88;6.30;;;5.80;72.70;;;;;;5093428;28;20487;-36
2021/04/18 05:15:42;;;;;;;11.82;6.38;;;5.50;73.10;;;;;;5093815;28;20379;-36
2021/04/18 05:18:07;;;;;;;16.35;7.07;;;5.60;73.20;;;;;;5093445;28;20024;-36
2021/04/18 05:20:33;;;;;;;19.95;7.65;;;5.80;72.40;;;;;;5093598;28;20024;-36
2021/04/18 05:22:59;;;;;;;9.30;5.97;;;5.70;73.20;;;;;;5093651;28;20039;-36
2021/04/18 05:25:25;;;;;;;14.45;6.35;;;5.70;73.10;;;;;;5093323;28;20020;-36
2021/04/18 05:27:50;;;;;;;16.05;6.97;;;5.60;73.30;;;;;;5093544;28;20044;-36
2021/04/18 05:30:16;;;;;;;11.68;5.93;;;5.80;73.00;;;;;;5093506;28;20483;-36
2021/04/18 05:32:42;;;;;;;13.00;7.40;;;6.10;72.20;;;;;;5093013;28;20047;-36
2021/04/18 05:35:09;;;;;;;11.13;5.85;;;6.00;72.30;;;;;;5093249;28;20024;-36
2021/04/18 05:37:35;;;;;;;10.55;6.78;;;6.00;71.90;;;;;;5093472;28;20460;-36
2021/04/18 05:40:01;;;;;;;11.45;6.55;;;5.90;72.60;;;;;;5093098;28;20027;-36
2021/04/18 05:42:27;;;;;;;17.50;6.78;;;5.90;72.60;;;;;;5093192;28;20024;-37
2021/04/18 05:44:53;;;;;;;15.13;7.03;;;6.30;72.00;;;;;;5093345;28;20034;-37
2021/04/18 05:47:19;;;;;;;13.80;6.60;;;6.20;72.10;;;;;;5092980;28;20109;-36
2021/04/18 05:49:44;;;;;;;14.30;6.68;;;6.20;72.20;;;;;;5093368;28;20383;-37
2021/04/18 05:52:10;;;;;;;16.92;8.90;;;6.50;71.60;;;;;;5093243;28;20024;-36
2021/04/18 05:54:36;;;;;;;10.23;6.35;;;6.80;70.20;;;;;;5091889;28;20020;-35
2021/04/18 05:57:02;;;;;;;9.98;6.32;;;6.70;70.40;;;;;;5093535;28;20024;-36
2021/04/18 05:59:27;;;;;;;14.90;8.13;;;6.70;70.70;;;;;;5093780;28;20024;-36
2021/04/18 06:01:53;;;;;;;18.67;7.72;;;6.80;70.50;;;;;;5097897;28;20047;-36
2021/04/18 06:04:19;;;;;;;14.52;7.53;;;6.90;70.00;;;;;;5097389;28;20031;-37
2021/04/18 06:06:44;;;;;;;17.38;8.32;;;6.70;71.00;;;;;;5096947;28;20028;-36
2021/04/18 06:09:10;;;;;;;14.88;7.25;;;7.10;70.10;;;;;;5095725;28;20035;-36
2021/04/18 06:11:36;;;;;;;13.43;7.28;;;6.90;70.30;;;;;;5097034;28;20020;-37
2021/04/18 06:14:01;;;;;;;10.80;7.05;;;6.80;70.70;;;;;;5097030;28;20090;-36
2021/04/18 06:16:27;;;;;;;11.30;6.25;;;7.00;70.40;;;;;;5095797;28;20028;-37
2021/04/18 06:18:53;;;;;;;14.32;8.10;;;7.00;70.00;;;;;;5096898;28;20048;-36
2021/04/18 06:21:26;;;;;;;15.52;7.20;;;7.00;70.00;;;;;;5097015;28;20026;-39
2021/04/18 06:23:51;;;;;;;12.95;6.38;;;6.90;70.50;;;;;;5096883;28;20048;-37
2021/04/18 06:26:17;;;;;;;12.80;7.10;;;6.60;71.80;;;;;;5096706;28;20039;-36
2021/04/18 06:28:43;;;;;;;13.82;7.47;;;7.00;70.60;;;;;;5095376;28;20081;-36
2021/04/18 06:31:08;;;;;;;15.13;7.45;;;7.00;70.30;;;;;;5095313;28;20078;-36
2021/04/18 06:33:34;;;;;;;14.95;8.98;;;6.80;71.10;;;;;;5096512;28;20111;-36
2021/04/18 06:35:59;;;;;;;17.80;7.55;;;6.90;71.00;;;;;;5096595;28;20024;-36
2021/04/18 06:38:25;;;;;;;14.40;7.68;;;7.00;70.70;;;;;;5097016;28;20020;-36
2021/04/18 06:40:52;;;;;;;13.70;7.15;;;6.80;71.90;;;;;;5096595;28;20027;-37
2021/04/18 06:43:21;;;;;;;20.75;8.02;;;6.70;72.60;;;;;;5096584;28;20024;-35
2021/04/18 06:45:52;;;;;;;21.73;8.25;;;6.60;72.80;;;;;;5097263;28;20481;-37
2021/04/18 06:48:19;;;;;;;13.40;7.95;;;7.00;71.90;;;;;;5096346;28;20511;-35
2021/04/18 06:50:48;;;;;;;21.85;8.18;;;7.30;70.80;;;;;;5096615;28;20497;-35
2021/04/18 06:53:16;;;;;;;16.27;7.97;;;7.20;70.80;;;;;;5096170;28;20033;-35
2021/04/18 06:55:41;;;;;;;14.70;6.75;;;7.20;70.90;;;;;;5096384;28;20376;-37
2021/04/18 06:58:07;;;;;;;14.52;7.28;;;7.20;71.40;;;;;;5094840;28;20027;-36
2021/04/18 07:00:33;;;;;;;15.00;7.60;;;7.70;69.70;;;;;;5096470;28;20078;-35
2021/04/18 07:03:18;;;;;;;11.75;8.13;;;7.70;68.80;;;;;;5096181;28;20103;-36
2021/04/18 07:05:46;;;;;;;15.70;8.20;;;7.30;70.50;;;;;;5096267;28;20043;-36
2021/04/18 07:08:27;;;;;;;18.75;9.95;;;7.60;69.70;;;;;;5096068;28;20108;-36
2021/04/18 07:11:18;;;;;;;18.13;8.43;;;8.00;69.00;;;;;;5095468;28;20111;-36
2021/04/18 07:13:46;;;;;;;20.25;8.18;;;8.00;68.10;;;;;;5095884;28;20024;-36
2021/04/18 07:16:30;;;;;;;16.70;10.25;;;8.00;68.20;;;;;;5095668;28;20027;-36
2021/04/18 07:18:57;;;;;;;11.00;8.32;;;8.00;68.40;;;;;;5095684;28;20024;-36
2021/04/18 07:21:23;;;;;;;15.27;7.45;;;8.10;68.10;;;;;;5096061;28;20024;-36
2021/04/18 07:23:49;;;;;;;15.25;9.05;;;8.10;67.90;;;;;;5096057;28;20039;-37
2021/04/18 07:26:25;;;;;;;17.88;8.60;;;8.10;68.20;;;;;;5096010;28;20021;-37
2021/04/18 07:29:11;;;;;;;23.17;8.00;;;8.30;68.00;;;;;;5096258;28;20066;-36
2021/04/18 07:31:37;;;;;;;17.70;8.63;;;8.70;66.50;;;;;;5095133;28;20496;-36
2021/04/18 07:34:09;;;;;;;15.40;8.23;;;8.40;66.90;;;;;;5095077;28;20043;-36
2021/04/18 07:36:36;;;;;;;18.30;8.30;;;8.40;67.60;;;;;;5095117;28;20024;-37
2021/04/18 07:39:06;;;;;;;17.17;8.02;;;8.70;66.40;;;;;;5095312;28;20016;-36
2021/04/18 07:41:32;;;;;;;20.05;8.75;;;8.30;67.80;;;;;;5095390;28;20031;-35
2021/04/18 07:43:58;;;;;;;20.73;9.05;;;8.60;67.40;;;;;;5095179;28;20555;-36
2021/04/18 07:46:23;;;;;;;16.02;8.75;;;8.50;67.70;;;;;;5095037;28;20107;-36
2021/04/18 07:48:49;;;;;;;14.23;8.70;;;8.50;68.00;;;;;;5095016;28;20135;-36
2021/04/18 07:51:17;;;;;;;24.20;10.20;;;8.30;68.60;;;;;;5095354;28;20544;-36
2021/04/18 07:53:44;;;;;;;17.48;8.57;;;7.90;70.40;;;;;;5094926;28;20024;-36
2021/04/18 07:56:11;;;;;;;18.27;8.80;;;8.30;69.30;;;;;;5094963;28;20023;-37
2021/04/18 07:58:38;;;;;;;21.45;8.88;;;8.30;69.40;;;;;;5094789;28;20499;-36
2021/04/18 08:01:04;;;;;;;18.92;8.20;;;8.40;68.90;;;;;;5095115;28;20024;-36
2021/04/18 08:03:31;;;;;;;15.35;9.25;;;8.40;69.30;;;;;;5094876;28;20031;-36
2021/04/18 08:05:56;;;;;;;17.98;8.80;;;8.60;68.90;;;;;;5094731;28;20027;-36
2021/04/18 08:08:22;;;;;;;17.95;8.88;;;8.70;68.30;;;;;;5094905;28;20376;-36
2021/04/18 08:10:50;;;;;;;16.67;8.50;;;8.60;68.70;;;;;;5095001;28;20497;-36
2021/04/18 08:13:18;;;;;;;24.35;9.70;;;8.70;68.80;;;;;;5094896;28;20110;-36
2021/04/18 08:15:57;;;;;;;18.15;9.52;;;8.90;67.90;;;;;;5094875;28;20024;-36
2021/04/18 08:18:29;;;;;;;18.83;10.55;;;8.80;67.90;;;;;;5094508;28;20058;-36
2021/04/18 08:20:55;;;;;;;17.83;9.00;;;9.10;67.50;;;;;;5094280;28;20020;-36
2021/04/18 08:23:22;;;;;;;16.27;9.10;;;9.30;66.80;;;;;;5092384;28;20073;-36
2021/04/18 08:26:09;;;;;;;21.70;10.18;;;9.10;67.20;;;;;;5094281;28;20032;-37
2021/04/18 08:31:25;;;;;;;14.48;9.05;;;9.40;66.00;;;;;;5094086;28;20024;-36
2021/04/18 08:33:54;;;;;;;25.02;9.70;;;9.30;66.40;;;;;;5093364;28;20031;-36
2021/04/18 08:36:23;;;;;;;13.77;8.13;;;9.80;64.60;;;;;;5094005;28;20020;-36
2021/04/18 08:39:09;;;;;;;19.52;9.32;;;10.00;64.20;;;;;;5094479;28;20044;-35
2021/04/18 08:41:38;;;;;;;16.02;8.95;;;10.60;62.80;;;;;;5094405;28;20472;-37
2021/04/18 08:44:15;;;;;;;13.88;7.93;;;10.80;61.00;;;;;;5094021;28;20386;-36
2021/04/18 08:46:41;;;;;;;19.98;8.20;;;10.50;61.70;;;;;;5094073;28;20047;-36
2021/04/18 08:49:07;;;;;;;17.25;8.88;;;10.40;62.70;;;;;;5094035;28;20044;-37
2021/04/18 08:51:32;;;;;;;20.80;10.27;;;10.20;63.10;;;;;;5094217;28;20107;-37
2021/04/18 08:54:00;;;;;;;16.63;8.57;;;10.40;63.20;;;;;;5093653;28;20036;-37
2021/04/18 08:56:49;;;;;;;11.48;7.40;;;12.00;58.60;;;;;;5094115;28;20028;-37
2021/04/18 08:59:15;;;;;;;12.32;7.22;;;13.60;53.00;;;;;;5093872;28;20024;-39
2021/04/18 09:01:52;;;;;;;16.95;7.63;;;13.20;53.50;;;;;;5093646;28;20597;-37
2021/04/18 09:04:20;;;;;;;18.17;8.13;;;13.80;52.00;;;;;;5093884;28;20024;-36
2021/04/18 09:06:47;;;;;;;15.13;8.07;;;13.70;51.80;;;;;;5094093;28;20051;-36
2021/04/18 09:09:13;;;;;;;16.85;9.80;;;13.50;52.00;;;;;;5092816;28;20020;-37
2021/04/18 09:11:42;;;;;;;14.82;8.18;;;13.60;51.90;;;;;;5093793;28;20436;-38
2021/04/18 09:14:08;;;;;;;15.00;8.05;;;12.70;54.30;;;;;;5093899;28;20468;-37
2021/04/18 09:16:36;;;;;;;20.67;8.70;;;12.30;56.30;;;;;;5093772;28;20049;-37
2021/04/18 09:19:21;;;;;;;17.00;8.85;;;12.60;55.20;;;;;;5093709;28;20024;-37
2021/04/18 09:22:05;;;;;;;18.27;9.23;;;12.20;57.20;;;;;;5092076;28;20058;-37
2021/04/18 09:24:36;;;;;;;14.60;8.18;;;13.00;54.70;;;;;;5093405;28;20039;-38
2021/04/18 09:27:05;;;;;;;;;;;12.80;55.50;;;;;;5094080;28;20020;-38
2021/04/18 09:29:31;;;;;;;17.52;9.73;;;12.80;55.40;;;;;;5093472;28;19911;-36
2021/04/18 09:32:06;;;;;;;19.30;8.88;;;12.90;55.60;;;;;;5093564;28;20381;-38
2021/04/18 09:34:33;;;;;;;19.27;9.02;;;12.40;57.30;;;;;;5093490;28;20020;-36
2021/04/18 09:37:00;;;;;;;18.20;9.63;;;12.70;56.50;;;;;;5093301;28;20024;-38
2021/04/18 09:39:28;;;;;;;16.17;8.35;;;12.40;57.80;;;;;;5091905;28;20383;-39
2021/04/18 09:41:56;;;;;;;16.08;9.43;;;12.80;55.80;;;;;;5093164;28;20116;-37
2021/04/18 09:44:28;;;;;;;16.70;9.63;;;13.10;54.60;;;;;;5093553;28;20024;-38
2021/04/18 09:46:56;;;;;;;15.50;9.68;;;12.80;55.70;;;;;;5093414;28;20059;-37
2021/04/18 09:49:22;;;;;;;16.45;8.20;;;13.30;54.40;;;;;;5092996;28;20431;-37
2021/04/18 09:52:02;;;;;;;13.00;9.10;;;13.50;53.40;;;;;;5093216;28;20024;-37
2021/04/18 09:54:37;;;;;;;15.88;9.45;;;13.70;52.40;;;;;;5091920;28;20107;-37
2021/04/18 09:57:16;;;;;;;18.40;10.07;;;14.00;51.50;;;;;;5093057;28;20024;-37
2021/04/18 09:59:42;;;;;;;17.77;9.57;;;13.80;51.50;;;;;;5093099;28;20028;-37
2021/04/18 10:02:09;;;;;;;16.80;8.95;;;13.50;52.00;;;;;;5093109;28;20034;-37
2021/04/18 10:04:35;;;;;;;22.67;9.40;;;13.30;52.70;;;;;;5093104;28;20409;-37
2021/04/18 10:07:00;;;;;;;15.40;9.45;;;13.10;54.10;;;;;;5092970;28;20108;-36
2021/04/18 10:09:49;;;;;;;17.38;9.30;;;13.50;53.30;;;;;;5092877;28;20021;-37
2021/04/18 10:12:16;;;;;;;19.17;9.48;;;13.30;53.20;;;;;;5093651;28;20462;-38
2021/04/18 10:14:45;;;;;;;13.23;8.13;;;13.40;53.40;;;;;;5092799;28;20100;-38
2021/04/18 10:17:11;;;;;;;12.73;8.10;;;13.80;52.30;;;;;;5091850;28;20361;-36
2021/04/18 10:19:52;;;;;;;17.00;9.00;;;13.60;52.50;;;;;;5093565;28;20357;-37
2021/04/18 10:22:18;;;;;;;18.73;7.95;;;13.90;49.80;;;;;;5092737;28;20032;-36
2021/04/18 10:24:49;;;;;;;13.43;7.85;;;14.20;48.10;;;;;;5093331;28;20414;-37
2021/04/18 10:27:41;;;;;;;12.13;7.78;;;14.20;48.50;;;;;;5091772;28;20388;-36
2021/04/18 10:30:08;;;;;;;15.68;8.07;;;14.60;46.80;;;;;;5092934;28;20368;-37
2021/04/18 10:32:33;;;;;;;13.23;7.57;;;15.30;44.90;;;;;;5091762;28;20024;-37
2021/04/18 10:34:59;;;;;;;11.27;6.57;;;15.50;44.10;;;;;;5093505;28;20024;-37
2021/04/18 10:37:25;;;;;;;12.30;7.18;;;16.40;42.00;;;;;;5093233;28;20103;-38
2021/04/18 10:39:51;;;;;;;12.23;7.93;;;15.80;43.20;;;;;;5091619;28;20020;-37
2021/04/18 10:42:17;;;;;;;14.52;7.10;;;15.00;45.10;;;;;;5093698;28;20372;-37
2021/04/18 10:44:42;;;;;;;11.02;7.28;;;15.10;45.00;;;;;;5092867;28;20032;-37
2021/04/18 10:47:16;;;;;;;13.68;8.40;;;14.50;45.80;;;;;;5094402;28;20040;-37
2021/04/18 10:49:45;;;;;;;14.88;8.68;;;14.50;46.20;;;;;;5096145;28;20117;-38
2021/04/18 10:52:11;;;;;;;13.43;7.45;;;13.90;48.00;;;;;;5096120;28;20024;-37
2021/04/18 10:54:37;;;;;;;12.95;7.13;;;14.30;46.40;;;;;;5096004;28;20024;-36
2021/04/18 10:57:03;;;;;;;12.07;6.65;;;14.30;46.50;;;;;;5096081;28;20119;-37
2021/04/18 10:59:28;;;;;;;10.75;6.70;;;14.00;47.30;;;;;;5096311;28;20068;-37
2021/04/18 11:01:54;;;;;;;11.75;7.90;;;13.70;48.70;;;;;;5095932;28;20024;-37
2021/04/18 11:04:21;;;;;;;12.68;7.35;;;13.50;49.40;;;;;;5095922;28;20100;-36
2021/04/18 11:06:47;;;;;;;17.73;8.10;;;13.50;49.60;;;;;;5096113;28;20044;-37
2021/04/18 11:09:12;;;;;;;10.65;8.30;;;14.00;48.80;;;;;;5094444;28;20016;-41
2021/04/18 11:11:38;;;;;;;14.90;6.80;;;13.70;49.50;;;;;;5096098;28;20024;-37
2021/04/18 11:14:05;;;;;;;17.13;8.75;;;14.30;48.30;;;;;;5098842;28;20031;-37
2021/04/18 11:16:31;;;;;;;16.27;8.40;;;14.40;47.80;;;;;;5096056;28;20078;-36
2021/04/18 11:18:57;;;;;;;16.77;8.55;;;14.70;47.00;;;;;;5095640;28;20021;-39
2021/04/18 11:21:23;;;;;;;14.88;7.70;;;15.10;46.30;;;;;;5095846;28;20024;-37
2021/04/18 11:23:50;;;;;;;13.95;7.63;;;15.20;45.60;;;;;;5095699;28;20032;-36
2021/04/18 11:26:16;;;;;;;15.60;8.15;;;14.60;46.60;;;;;;5094343;28;20028;-36
2021/04/18 11:28:41;;;;;;;11.65;7.95;;;14.60;46.90;;;;;;5094326;28;20020;-36
2021/04/18 11:31:07;;;;;;;15.55;8.70;;;14.80;46.70;;;;;;5094332;28;20031;-36
2021/04/18 11:33:33;;;;;;;12.93;7.32;;;15.10;45.80;;;;;;5095402;28;20384;-38
2021/04/18 11:35:58;;;;;;;10.13;6.80;;;15.10;45.70;;;;;;5095663;28;20494;-37
2021/04/18 11:38:24;;;;;;;12.25;7.28;;;14.20;46.50;;;;;;5094424;28;20032;-37
2021/04/18 11:40:50;;;;;;;11.18;6.68;;;13.60;48.10;;;;;;5095385;28;20027;-37
2021/04/18 11:43:17;;;;;;;14.77;8.20;;;13.60;48.60;;;;;;5095405;28;20066;-37
2021/04/18 11:45:43;;;;;;;16.23;6.50;;;13.80;48.40;;;;;;5077276;28;20024;-37
2021/04/18 11:48:09;;;;;;;12.43;6.70;;;14.30;47.50;;;;;;5095264;28;20100;-37
2021/04/18 11:50:35;;;;;;;11.98;6.65;;;14.30;47.00;;;;;;5094256;28;20020;-38
2021/04/18 11:53:02;;;;;;;10.63;6.22;;;14.30;47.50;;;;;;5093981;28;20511;-36
2021/04/18 11:55:28;;;;;;;11.70;7.25;;;14.40;47.30;;;;;;5094113;28;20020;-37
2021/04/18 11:57:55;;;;;;;12.55;7.70;;;14.80;46.20;;;;;;5095235;28;20028;-36
2021/04/18 12:00:21;;;;;;;9.25;6.80;;;15.10;45.40;;;;;;5095313;28;20343;-36
2021/04/18 12:02:51;;;;;;;8.85;6.18;;;14.80;46.20;;;;;;5093734;28;20024;-37
2021/04/18 12:05:17;;;;;;;21.08;7.72;;;15.30;45.30;;;;;;5095137;28;20035;-37
2021/04/18 12:07:43;;;;;;;15.77;8.23;;;15.30;45.30;;;;;;5095380;28;20146;-37
2021/04/18 12:10:10;;;;;;;14.23;8.32;;;15.90;44.10;;;;;;5093700;28;20024;-37
2021/04/18 12:12:38;;;;;;;14.68;8.15;;;17.10;41.60;;;;;;5094802;28;20027;-38
2021/04/18 12:15:05;;;;;;;11.90;7.75;;;17.80;39.60;;;;;;5094853;28;20031;-37
2021/04/18 12:17:32;;;;;;;20.33;8.45;;;18.80;37.90;;;;;;5094613;28;20068;-38
2021/04/18 12:19:57;;;;;;;17.92;8.45;;;19.80;35.90;;;;;;5094466;28;20024;-37
2021/04/18 12:22:23;;;;;;;14.23;8.70;;;19.30;37.00;;;;;;5094781;28;20088;-38
2021/04/18 12:24:49;;;;;;;13.45;8.35;;;17.80;39.20;;;;;;5094461;28;20024;-37
2021/04/18 12:27:14;;;;;;;13.55;7.38;;;17.30;40.60;;;;;;5093915;28;20100;-38
2021/04/18 12:29:40;;;;;;;16.02;8.30;;;16.80;42.10;;;;;;5094293;28;20150;-37
2021/04/18 12:32:06;;;;;;;11.30;7.60;;;17.30;41.20;;;;;;5094072;28;20426;-38
2021/04/18 12:34:33;;;;;;;11.65;7.13;;;16.40;42.70;;;;;;5094841;28;20024;-37
2021/04/18 12:36:59;;;;;;;14.20;7.20;;;15.60;45.00;;;;;;5093226;28;20024;-37
2021/04/18 12:39:25;;;;;;;10.85;6.53;;;15.30;46.20;;;;;;5094453;28;20047;-37
2021/04/18 12:41:51;;;;;;;11.25;6.45;;;15.00;47.00;;;;;;5094365;28;20054;-37
2021/04/18 12:44:18;;;;;;;11.15;7.55;;;15.10;47.30;;;;;;5092886;28;20024;-37
2021/04/18 12:46:44;;;;;;;11.05;6.50;;;14.70;48.20;;;;;;5094086;28;20031;-37
2021/04/18 12:49:09;;;;;;;10.40;6.00;;;14.80;48.30;;;;;;5075953;28;20044;-37